createdAt,value
2017-12-24T00:00:36.356Z,33.30
2017-12-24T00:03:04.743Z,33.47
2017-12-24T00:05:33.282Z,29.97
2017-12-24T00:08:01.615Z,30.00
2017-12-24T00:10:30.013Z,31.50
2017-12-24T00:12:58.409Z,30.60
2017-12-24T00:15:26.765Z,33.17
2017-12-24T00:17:55.911Z,31.13
2017-12-24T00:20:24.276Z,29.73
2017-12-24T00:22:52.612Z,26.33
2017-12-24T00:25:21.768Z,28.93
2017-12-24T00:27:50.113Z,31.80
2017-12-24T00:30:18.470Z,28.30
2017-12-24T00:32:46.889Z,31.40
2017-12-24T00:35:15.262Z,27.57
2017-12-24T00:37:44.408Z,27.77
2017-12-24T00:40:12.763Z,27.00
2017-12-24T00:42:41.128Z,30.67
2017-12-24T00:45:09.486Z,29.83
2017-12-24T00:47:37.885Z,31.53
2017-12-24T00:50:06.353Z,30.40
2017-12-24T00:52:34.736Z,30.63
2017-12-24T00:55:03.214Z,30.90
2017-12-24T00:57:31.610Z,32.13
2017-12-24T00:59:59.956Z,31.23
2017-12-24T01:02:28.326Z,33.23
2017-12-24T01:04:56.851Z,29.83
2017-12-24T01:07:25.171Z,32.07
2017-12-24T01:09:53.608Z,33.23
2017-12-24T01:12:22.816Z,33.33
2017-12-24T01:14:51.156Z,33.13
2017-12-24T01:17:19.500Z,30.73
2017-12-24T01:19:47.870Z,35.93
2017-12-24T01:22:16.215Z,34.20
2017-12-24T01:24:45.056Z,34.97
2017-12-24T01:27:14.311Z,34.03
2017-12-24T01:29:42.656Z,34.90
2017-12-24T01:32:11.057Z,34.80
2017-12-24T01:34:39.429Z,37.47
2017-12-24T01:37:07.787Z,35.53
2017-12-24T01:39:36.125Z,34.20
2017-12-24T01:42:04.473Z,31.63
2017-12-24T01:44:32.845Z,33.87
2017-12-24T01:47:01.187Z,34.07
2017-12-24T01:49:30.322Z,34.17
2017-12-24T01:51:59.589Z,33.27
2017-12-24T01:54:28.727Z,31.07
2017-12-24T01:56:57.091Z,30.63
2017-12-24T01:59:25.437Z,32.00
2017-12-24T02:01:54.672Z,30.00
2017-12-24T02:04:23.052Z,31.53
2017-12-24T02:06:51.381Z,30.13
2017-12-24T02:09:19.741Z,28.70
2017-12-24T02:11:48.564Z,29.03
2017-12-24T02:14:17.696Z,27.03
2017-12-24T02:16:46.087Z,30.07
2017-12-24T02:19:14.425Z,27.43
2017-12-24T02:21:43.548Z,28.80
2017-12-24T02:24:11.892Z,28.10
2017-12-24T02:26:41.015Z,26.90
2017-12-24T02:29:09.400Z,26.10
2017-12-24T02:31:37.790Z,27.73
2017-12-24T02:34:06.143Z,26.10
2017-12-24T02:36:34.494Z,27.53
2017-12-24T02:39:02.862Z,26.40
2017-12-24T02:41:31.238Z,27.07
2017-12-24T02:43:59.748Z,25.83
2017-12-24T02:46:28.091Z,27.13
2017-12-24T02:48:56.428Z,27.47
2017-12-24T02:51:24.794Z,28.33
2017-12-24T02:53:54.367Z,26.03
2017-12-24T02:56:22.712Z,26.03
2017-12-24T02:58:51.050Z,27.50
2017-12-24T03:01:20.182Z,29.17
2017-12-24T03:03:48.588Z,27.77
2017-12-24T03:06:16.946Z,29.87
2017-12-24T03:08:45.325Z,28.43
2017-12-24T03:11:13.672Z,30.67
2017-12-24T03:13:42.789Z,31.27
2017-12-24T03:16:11.138Z,29.20
2017-12-24T03:18:40.275Z,29.13
2017-12-24T03:21:08.635Z,30.70
2017-12-24T03:23:37.040Z,31.97
2017-12-24T03:26:05.476Z,30.37
2017-12-24T03:28:33.959Z,30.40
2017-12-24T03:31:03.140Z,30.37
2017-12-24T03:33:31.474Z,30.63
2017-12-24T03:35:59.845Z,31.77
2017-12-24T03:38:28.189Z,32.77
2017-12-24T03:40:57.300Z,34.93
2017-12-24T03:43:25.644Z,34.33
2017-12-24T03:45:54.018Z,34.33
2017-12-24T03:48:22.563Z,35.03
2017-12-24T03:50:50.943Z,33.77
2017-12-24T03:53:19.500Z,35.37
2017-12-24T03:55:48.614Z,33.83
2017-12-24T03:58:16.992Z,35.67
2017-12-24T04:00:45.328Z,37.67
2017-12-24T04:03:13.676Z,36.00
2017-12-24T04:05:42.038Z,39.67
2017-12-24T04:08:10.417Z,32.90
2017-12-24T04:10:38.765Z,33.07
2017-12-24T04:13:07.882Z,36.40
2017-12-24T04:15:36.248Z,36.67
2017-12-24T04:18:04.617Z,36.53
2017-12-24T04:20:33.742Z,37.40
2017-12-24T04:23:02.089Z,35.60
2017-12-24T04:25:31.207Z,36.23
2017-12-24T04:27:59.667Z,37.67
2017-12-24T04:30:28.823Z,36.40
2017-12-24T04:32:57.173Z,35.03
2017-12-24T04:35:25.553Z,37.77
2017-12-24T04:37:53.928Z,38.27
2017-12-24T04:40:22.289Z,36.47
2017-12-24T04:42:51.396Z,35.23
2017-12-24T04:45:19.746Z,35.20
2017-12-24T04:47:48.187Z,35.63
2017-12-24T04:50:16.643Z,39.37
2017-12-24T04:52:45.089Z,38.33
2017-12-24T04:55:13.416Z,35.60
2017-12-24T04:57:41.790Z,33.60
2017-12-24T05:00:10.142Z,34.57
2017-12-24T05:02:39.262Z,35.10
2017-12-24T05:05:07.617Z,33.97
2017-12-24T05:07:36.699Z,32.80
2017-12-24T05:10:05.826Z,33.73
2017-12-24T05:12:34.185Z,33.67
2017-12-24T05:15:03.280Z,32.23
2017-12-24T05:17:32.413Z,31.73
2017-12-24T05:20:00.792Z,34.13
2017-12-24T05:22:29.155Z,33.70
2017-12-24T05:24:57.557Z,31.33
2017-12-24T05:27:26.009Z,34.43
2017-12-24T05:29:54.384Z,35.73
2017-12-24T05:32:22.769Z,33.40
2017-12-24T05:34:51.132Z,32.57
2017-12-24T05:37:20.364Z,34.97
2017-12-24T05:39:48.728Z,34.50
2017-12-24T05:42:17.081Z,32.87
2017-12-24T05:44:45.418Z,30.67
2017-12-24T05:47:13.880Z,31.60
2017-12-24T05:49:42.219Z,31.00
2017-12-24T05:52:11.348Z,32.40
2017-12-24T05:54:39.703Z,32.10
2017-12-24T05:57:08.844Z,33.70
2017-12-24T05:59:37.207Z,36.27
2017-12-24T06:02:05.566Z,32.30
2017-12-24T06:04:33.915Z,32.37
2017-12-24T06:07:02.268Z,30.50
2017-12-24T06:09:30.635Z,33.57
2017-12-24T06:11:58.978Z,31.80
2017-12-24T06:14:27.338Z,33.57
2017-12-24T06:16:55.692Z,32.93
2017-12-24T06:19:24.052Z,29.50
2017-12-24T06:21:52.381Z,33.30
2017-12-24T06:24:21.503Z,30.33
2017-12-24T06:26:49.840Z,33.20
2017-12-24T06:29:18.373Z,31.33
2017-12-24T06:31:46.762Z,31.63
2017-12-24T06:34:15.104Z,31.80
2017-12-24T06:36:44.259Z,36.37
2017-12-24T06:39:12.623Z,32.60
2017-12-24T06:41:40.973Z,32.87
2017-12-24T06:44:09.326Z,33.47
2017-12-24T06:46:38.436Z,32.57
2017-12-24T06:49:07.567Z,35.27
2017-12-24T06:51:36.008Z,33.27
2017-12-24T06:54:05.127Z,32.10
2017-12-24T06:56:33.477Z,33.33
2017-12-24T06:59:02.595Z,37.50
2017-12-24T07:01:30.949Z,32.80
2017-12-24T07:03:59.379Z,33.10
2017-12-24T07:06:27.974Z,36.87
2017-12-24T07:08:56.308Z,33.70
2017-12-24T07:11:25.432Z,36.67
2017-12-24T07:13:53.793Z,36.30
2017-12-24T07:16:22.141Z,34.23
2017-12-24T07:18:50.504Z,31.90
2017-12-24T07:21:18.837Z,37.50
2017-12-24T07:23:47.289Z,35.63
2017-12-24T07:26:16.504Z,32.53
2017-12-24T07:28:45.092Z,32.30
2017-12-24T07:31:13.452Z,33.77
2017-12-24T07:33:41.777Z,31.57
2017-12-24T07:36:10.145Z,30.90
2017-12-24T07:38:39.108Z,32.37
2017-12-24T07:41:08.231Z,32.33
2017-12-24T07:43:36.602Z,28.93
2017-12-24T07:46:04.956Z,30.87
2017-12-24T07:48:34.075Z,30.10
2017-12-24T07:51:02.427Z,32.57
2017-12-24T07:53:31.540Z,32.03
2017-12-24T07:55:59.902Z,31.33
2017-12-24T07:58:28.247Z,31.30
2017-12-24T08:00:56.591Z,30.37
2017-12-24T08:03:24.935Z,30.87
2017-12-24T08:05:54.073Z,38.23
2017-12-24T08:08:22.524Z,32.87
2017-12-24T08:10:52.260Z,37.37
2017-12-24T08:13:20.604Z,31.93
2017-12-24T08:15:49.725Z,34.23
2017-12-24T08:18:18.108Z,35.83
2017-12-24T08:20:46.431Z,34.73
2017-12-24T08:23:14.851Z,33.37
2017-12-24T08:25:44.023Z,35.23
2017-12-24T08:28:12.352Z,38.43
2017-12-24T08:30:40.708Z,34.67
2017-12-24T08:33:09.812Z,37.57
2017-12-24T08:35:38.206Z,32.20
2017-12-24T08:38:06.576Z,34.83
2017-12-24T08:40:34.943Z,32.83
2017-12-24T08:43:04.075Z,34.00
2017-12-24T08:45:33.153Z,34.47
2017-12-24T08:48:01.655Z,36.00
2017-12-24T08:50:29.998Z,34.37
2017-12-24T08:52:59.106Z,31.87
2017-12-24T08:55:27.458Z,33.07
2017-12-24T08:57:56.575Z,30.87
2017-12-24T09:00:25.770Z,31.37
2017-12-24T09:02:54.105Z,29.73
2017-12-24T09:05:22.548Z,30.17
2017-12-24T09:07:50.944Z,31.47
2017-12-24T09:10:19.807Z,30.07
2017-12-24T09:12:48.206Z,28.40
2017-12-24T09:15:16.541Z,28.43
2017-12-24T09:17:45.678Z,26.07
2017-12-24T09:20:14.027Z,27.27
2017-12-24T09:22:43.158Z,26.07
2017-12-24T09:25:11.531Z,26.73
2017-12-24T09:27:39.872Z,29.33
2017-12-24T09:30:08.980Z,28.43
2017-12-24T09:32:38.134Z,27.83
2017-12-24T09:35:06.464Z,27.03
2017-12-24T09:37:34.838Z,26.63
2017-12-24T09:40:03.207Z,28.03
2017-12-24T09:42:32.318Z,25.10
2017-12-24T09:45:00.757Z,26.87
2017-12-24T09:47:29.127Z,23.13
2017-12-24T09:49:57.755Z,24.83
2017-12-24T09:52:26.108Z,25.80
2017-12-24T09:54:54.473Z,25.63
2017-12-24T09:57:22.925Z,27.13
2017-12-24T09:59:51.360Z,25.87
2017-12-24T10:02:19.763Z,25.77
2017-12-24T10:04:48.159Z,25.17
2017-12-24T10:07:16.853Z,24.17
2017-12-24T10:09:45.206Z,22.63
2017-12-24T10:12:13.538Z,23.03
2017-12-24T10:14:41.906Z,20.10
2017-12-24T10:17:10.271Z,22.57
2017-12-24T10:19:38.640Z,20.30
2017-12-24T10:22:06.999Z,21.60
2017-12-24T10:24:35.344Z,26.53
2017-12-24T10:27:03.751Z,22.00
2017-12-24T10:29:32.157Z,20.37
2017-12-24T10:32:00.554Z,20.60
2017-12-24T10:34:28.893Z,21.90
2017-12-24T10:36:57.245Z,21.27
2017-12-24T10:39:25.606Z,21.40
2017-12-24T10:41:53.951Z,20.50
2017-12-24T10:44:22.424Z,20.70
2017-12-24T10:46:50.772Z,19.77
2017-12-24T10:49:20.047Z,20.57
2017-12-24T10:51:48.408Z,18.03
2017-12-24T10:54:16.805Z,20.80
2017-12-24T10:56:45.138Z,19.13
2017-12-24T10:59:13.488Z,20.10
2017-12-24T11:01:42.601Z,19.60
2017-12-24T11:04:10.971Z,18.67
2017-12-24T11:06:40.102Z,18.80
2017-12-24T11:09:08.439Z,18.37
2017-12-24T11:11:37.548Z,19.17
2017-12-24T11:14:06.698Z,16.73
2017-12-24T11:16:35.045Z,17.67
2017-12-24T11:19:03.380Z,20.90
2017-12-24T11:21:31.737Z,15.33
2017-12-24T11:24:00.081Z,16.37
2017-12-24T11:26:28.952Z,16.20
2017-12-24T11:28:58.174Z,13.70
2017-12-24T11:31:26.590Z,15.60
2017-12-24T11:33:55.035Z,18.43
2017-12-24T11:36:23.418Z,16.60
2017-12-24T11:38:51.784Z,18.33
2017-12-24T11:41:20.144Z,18.73
2017-12-24T11:43:49.235Z,17.97
2017-12-24T11:46:18.379Z,14.90
2017-12-24T11:48:46.699Z,17.73
2017-12-24T11:51:15.236Z,17.70
2017-12-24T11:53:43.577Z,17.00
2017-12-24T11:56:11.931Z,17.93
2017-12-24T11:58:40.288Z,18.27
2017-12-24T12:01:08.636Z,15.80
2017-12-24T12:03:36.976Z,16.93
2017-12-24T12:06:06.091Z,17.13
2017-12-24T12:08:34.496Z,16.70
2017-12-24T12:11:02.835Z,17.27
2017-12-24T12:13:31.954Z,15.60
2017-12-24T12:16:00.365Z,16.07
2017-12-24T12:18:28.759Z,18.00
2017-12-24T12:20:57.225Z,15.77
2017-12-24T12:23:25.569Z,16.33
2017-12-24T12:25:54.664Z,15.83
2017-12-24T12:28:23.016Z,17.47
2017-12-24T12:30:51.370Z,15.43
2017-12-24T12:33:19.720Z,15.77
2017-12-24T12:35:48.074Z,16.83
2017-12-24T12:38:17.176Z,16.97
2017-12-24T12:40:45.527Z,18.63
2017-12-24T12:43:14.690Z,17.43
2017-12-24T12:45:43.408Z,15.20
2017-12-24T12:48:11.760Z,18.50
2017-12-24T12:50:40.091Z,15.97
2017-12-24T12:53:08.448Z,13.83
2017-12-24T12:55:36.797Z,15.07
2017-12-24T12:58:05.157Z,15.03
2017-12-24T13:00:33.496Z,14.23
2017-12-24T13:03:02.912Z,14.80
2017-12-24T13:05:31.258Z,10.60
2017-12-24T13:07:59.603Z,12.17
2017-12-24T13:10:27.940Z,11.03
2017-12-24T13:12:57.050Z,12.33
2017-12-24T13:15:26.168Z,10.47
2017-12-24T13:17:54.523Z,10.63
2017-12-24T13:20:23.625Z,10.67
2017-12-24T13:22:52.120Z,9.30
2017-12-24T13:25:20.494Z,10.23
2017-12-24T13:27:48.881Z,10.47
2017-12-24T13:30:17.221Z,8.87
2017-12-24T13:32:46.339Z,8.50
2017-12-24T13:35:14.698Z,9.67
2017-12-24T13:37:43.817Z,8.77
2017-12-24T13:40:12.208Z,9.93
2017-12-24T13:42:40.664Z,8.27
2017-12-24T13:45:09.282Z,9.10
2017-12-24T13:47:37.596Z,9.07
2017-12-24T13:50:05.944Z,8.03
2017-12-24T13:52:34.286Z,6.77
2017-12-24T13:55:03.371Z,7.13
2017-12-24T13:57:32.493Z,7.33
2017-12-24T14:00:00.830Z,6.57
2017-12-24T14:02:29.166Z,6.77
2017-12-24T14:04:57.524Z,6.63
2017-12-24T14:07:25.935Z,6.10
2017-12-24T14:09:54.275Z,6.17
2017-12-24T14:12:22.620Z,7.00
2017-12-24T14:14:50.955Z,6.83
2017-12-24T14:17:19.336Z,6.03
2017-12-24T14:19:47.813Z,6.73
2017-12-24T14:22:16.516Z,6.13
2017-12-24T14:24:44.860Z,6.17
2017-12-24T14:27:13.207Z,6.03
2017-12-24T14:29:41.553Z,7.53
2017-12-24T14:32:09.863Z,8.23
2017-12-24T14:34:39.010Z,6.10
2017-12-24T14:37:07.341Z,7.37
2017-12-24T14:39:35.765Z,6.67
2017-12-24T14:42:04.122Z,6.07
2017-12-24T14:44:33.219Z,6.80
2017-12-24T14:47:02.381Z,6.03
2017-12-24T14:49:30.740Z,7.00
2017-12-24T14:51:59.066Z,11.43
2017-12-24T14:54:28.200Z,6.40
2017-12-24T14:56:56.523Z,6.27
2017-12-24T14:59:24.856Z,6.87
2017-12-24T15:01:53.236Z,9.33
2017-12-24T15:04:21.921Z,7.57
2017-12-24T15:06:50.253Z,7.40
2017-12-24T15:09:18.672Z,7.87
2017-12-24T15:11:47.008Z,7.43
2017-12-24T15:14:15.432Z,8.07
2017-12-24T15:16:43.811Z,8.30
2017-12-24T15:19:12.304Z,7.70
2017-12-24T15:21:40.631Z,7.97
2017-12-24T15:24:09.053Z,8.03
2017-12-24T15:26:37.375Z,9.43
2017-12-24T15:29:05.744Z,9.73
2017-12-24T15:31:34.085Z,10.00
2017-12-24T15:34:02.473Z,11.57
2017-12-24T15:36:30.836Z,11.53
2017-12-24T15:38:59.284Z,12.20
2017-12-24T15:41:27.630Z,11.23
2017-12-24T15:43:56.002Z,11.67
2017-12-24T15:46:24.363Z,11.37
2017-12-24T15:48:52.712Z,12.03
2017-12-24T15:51:21.826Z,11.43
2017-12-24T15:53:50.225Z,11.50
2017-12-24T15:56:19.315Z,13.23
2017-12-24T15:58:47.684Z,13.37
2017-12-24T16:01:16.085Z,13.30
2017-12-24T16:03:44.548Z,14.47
2017-12-24T16:06:12.902Z,15.53
2017-12-24T16:08:42.871Z,17.23
2017-12-24T16:11:11.233Z,18.33
2017-12-24T16:13:39.577Z,18.47
2017-12-24T16:16:07.977Z,18.77
2017-12-24T16:18:36.324Z,20.77
2017-12-24T16:21:05.487Z,19.60
2017-12-24T16:23:33.861Z,20.50
2017-12-24T16:26:02.200Z,18.30
2017-12-24T16:28:30.549Z,19.43
2017-12-24T16:30:58.907Z,22.97
2017-12-24T16:33:27.248Z,21.40
2017-12-24T16:35:55.744Z,20.80
2017-12-24T16:38:24.114Z,22.67
2017-12-24T16:40:52.516Z,20.73
2017-12-24T16:43:20.845Z,21.40
2017-12-24T16:45:49.964Z,20.30
2017-12-24T16:48:18.341Z,22.53
2017-12-24T16:50:46.668Z,23.40
2017-12-24T16:53:15.027Z,22.07
2017-12-24T16:55:43.367Z,24.97
2017-12-24T16:58:11.723Z,26.70
2017-12-24T17:00:40.146Z,23.63
2017-12-24T17:03:08.484Z,24.27
2017-12-24T17:05:37.221Z,26.77
2017-12-24T17:08:05.585Z,27.83
2017-12-24T17:10:33.925Z,26.80
2017-12-24T17:13:03.040Z,25.63
2017-12-24T17:15:31.399Z,28.00
2017-12-24T17:18:00.540Z,28.03
2017-12-24T17:20:29.011Z,27.20
2017-12-24T17:22:57.356Z,26.53
2017-12-24T17:25:26.494Z,28.07
2017-12-24T17:27:54.954Z,30.77
2017-12-24T17:30:24.274Z,28.67
2017-12-24T17:32:52.607Z,29.20
2017-12-24T17:35:20.946Z,28.17
2017-12-24T17:37:49.300Z,28.57
2017-12-24T17:40:17.646Z,27.97
2017-12-24T17:42:46.027Z,28.07
2017-12-24T17:45:15.143Z,25.73
2017-12-24T17:47:44.371Z,31.37
2017-12-24T17:50:12.764Z,29.20
2017-12-24T17:52:41.258Z,26.37
2017-12-24T17:55:09.630Z,28.80
2017-12-24T17:57:37.981Z,27.77
2017-12-24T18:00:06.344Z,25.90
2017-12-24T18:02:34.701Z,28.70
2017-12-24T18:05:03.813Z,26.87
2017-12-24T18:07:32.177Z,28.17
2017-12-24T18:10:00.524Z,28.40
2017-12-24T18:12:28.903Z,27.37
2017-12-24T18:14:57.360Z,25.20
2017-12-24T18:17:25.810Z,28.57
2017-12-24T18:19:54.929Z,26.10
2017-12-24T18:22:23.265Z,26.00
2017-12-24T18:24:51.648Z,23.30
2017-12-24T18:27:20.757Z,25.73
2017-12-24T18:29:50.105Z,28.77
2017-12-24T18:32:18.467Z,26.77
2017-12-24T18:34:46.829Z,26.00
2017-12-24T18:37:15.537Z,28.83
2017-12-24T18:39:43.924Z,26.43
2017-12-24T18:42:12.287Z,25.57
2017-12-24T18:44:41.375Z,23.53
2017-12-24T18:47:09.765Z,26.00
2017-12-24T18:49:38.127Z,26.00
2017-12-24T18:52:06.590Z,23.17
2017-12-24T18:54:34.980Z,23.97
2017-12-24T18:57:04.104Z,24.57
2017-12-24T18:59:32.445Z,25.67
2017-12-24T19:02:01.578Z,24.10
2017-12-24T19:04:30.137Z,24.70
2017-12-24T19:06:59.272Z,25.20
2017-12-24T19:09:27.632Z,23.37
2017-12-24T19:11:55.971Z,25.30
2017-12-24T19:14:24.425Z,26.67
2017-12-24T19:16:52.762Z,25.77
2017-12-24T19:19:21.484Z,24.37
2017-12-24T19:21:49.859Z,23.83
2017-12-24T19:24:18.239Z,22.97
2017-12-24T19:26:46.631Z,24.63
2017-12-24T19:29:14.968Z,23.80
2017-12-24T19:31:43.434Z,25.00
2017-12-24T19:34:12.549Z,23.50
2017-12-24T19:36:40.954Z,25.23
2017-12-24T19:39:09.310Z,25.80
2017-12-24T19:41:37.705Z,25.37
2017-12-24T19:44:06.992Z,25.97
2017-12-24T19:46:35.372Z,28.57
2017-12-24T19:49:03.722Z,26.40
2017-12-24T19:51:32.846Z,27.37
2017-12-24T19:54:01.191Z,28.67
2017-12-24T19:56:30.302Z,28.53
2017-12-24T19:58:58.708Z,27.03
2017-12-24T20:01:27.084Z,28.17
2017-12-24T20:03:55.473Z,24.73
2017-12-24T20:06:23.812Z,26.90
2017-12-24T20:08:52.941Z,26.70
2017-12-24T20:11:21.338Z,26.87
2017-12-24T20:13:50.413Z,29.00
2017-12-24T20:16:18.910Z,26.50
2017-12-24T20:18:47.265Z,28.20
2017-12-24T20:21:16.386Z,26.27
2017-12-24T20:23:44.713Z,27.67
2017-12-24T20:26:13.842Z,25.83
2017-12-24T20:28:42.189Z,26.73
2017-12-24T20:31:11.362Z,27.73
2017-12-24T20:33:39.711Z,26.80
2017-12-24T20:36:08.112Z,26.87
2017-12-24T20:38:36.573Z,28.23
2017-12-24T20:41:04.946Z,26.50
2017-12-24T20:43:33.279Z,27.43
2017-12-24T20:46:02.417Z,24.23
2017-12-24T20:48:30.754Z,24.50
2017-12-24T20:50:59.880Z,24.60
2017-12-24T20:53:28.226Z,26.10
2017-12-24T20:55:56.659Z,26.17
2017-12-24T20:58:25.072Z,25.67
2017-12-24T21:00:53.504Z,24.13
2017-12-24T21:03:21.859Z,22.63
2017-12-24T21:05:50.980Z,23.67
2017-12-24T21:08:19.382Z,19.97
2017-12-24T21:10:47.700Z,21.00
2017-12-24T21:13:16.807Z,20.67
2017-12-24T21:15:45.964Z,20.63
2017-12-24T21:18:14.307Z,19.87
2017-12-24T21:20:42.928Z,20.97
2017-12-24T21:23:11.270Z,20.63
2017-12-24T21:25:39.623Z,16.80
2017-12-24T21:28:09.100Z,18.67
2017-12-24T21:30:37.445Z,19.20
2017-12-24T21:33:06.140Z,18.57
2017-12-24T21:35:34.484Z,18.13
2017-12-24T21:38:03.596Z,16.13
2017-12-24T21:40:31.950Z,18.97
2017-12-24T21:43:00.394Z,17.03
2017-12-24T21:45:28.859Z,18.57
2017-12-24T21:47:57.233Z,18.97
2017-12-24T21:50:25.590Z,18.33
2017-12-24T21:52:53.932Z,15.67
2017-12-24T21:55:22.278Z,16.00
2017-12-24T21:57:50.645Z,18.57
2017-12-24T22:00:19.125Z,18.93
2017-12-24T22:02:47.517Z,14.57
2017-12-24T22:05:15.876Z,16.57
2017-12-24T22:07:44.211Z,16.97
2017-12-24T22:10:12.571Z,17.47
2017-12-24T22:12:41.014Z,15.50
2017-12-24T22:15:09.512Z,17.27
2017-12-24T22:17:38.022Z,16.80
2017-12-24T22:20:06.372Z,17.33
2017-12-24T22:22:34.741Z,16.90
2017-12-24T22:25:03.103Z,17.90
2017-12-24T22:27:31.800Z,16.60
2017-12-24T22:30:00.156Z,19.13
2017-12-24T22:32:29.257Z,19.27
2017-12-24T22:34:57.615Z,19.63
2017-12-24T22:37:26.755Z,17.53
2017-12-24T22:39:55.133Z,17.23
2017-12-24T22:42:23.471Z,17.47
2017-12-24T22:44:51.799Z,17.27
2017-12-24T22:47:20.194Z,17.40
2017-12-24T22:49:48.543Z,15.37
2017-12-24T22:52:16.896Z,16.03
2017-12-24T22:54:46.127Z,15.17
2017-12-24T22:57:14.488Z,13.10
2017-12-24T22:59:42.847Z,13.90
2017-12-24T23:02:11.273Z,14.33
2017-12-24T23:04:39.607Z,11.53
2017-12-24T23:07:08.698Z,12.00
2017-12-24T23:09:37.061Z,12.90
2017-12-24T23:12:05.392Z,12.77
2017-12-24T23:14:34.257Z,10.47
2017-12-24T23:17:03.500Z,11.40
2017-12-24T23:19:31.838Z,11.03
2017-12-24T23:22:01.308Z,9.07
2017-12-24T23:24:29.641Z,9.30
2017-12-24T23:26:58.044Z,10.57
2017-12-24T23:29:26.563Z,11.27
2017-12-24T23:31:54.891Z,9.60
2017-12-24T23:34:23.243Z,9.67
2017-12-24T23:36:52.331Z,8.63
2017-12-24T23:39:20.752Z,8.17
2017-12-24T23:41:49.101Z,9.40
2017-12-24T23:44:18.259Z,9.03
2017-12-24T23:46:46.696Z,7.73
2017-12-24T23:49:15.031Z,6.67
2017-12-24T23:51:43.374Z,7.13
2017-12-24T23:54:11.722Z,5.90
2017-12-24T23:56:40.094Z,7.07
2017-12-24T23:59:08.476Z,7.90
